createdAt,value
2022-09-10T00:01:27.612Z,100924.53
2022-09-10T00:03:54.870Z,100921.97
2022-09-10T00:06:24.951Z,100909.41
2022-09-10T00:08:52.753Z,100919.41
2022-09-10T00:11:20.881Z,100919.41
2022-09-10T00:13:50.702Z,100915.22
2022-09-10T00:16:20.670Z,100902.72
2022-09-10T00:18:50.172Z,100904.75
2022-09-10T00:21:20.985Z,100905.31
2022-09-10T00:23:48.478Z,100909.78
2022-09-10T00:26:22.361Z,100908.75
2022-09-10T00:28:51.141Z,100911.16
2022-09-10T00:31:21.921Z,100908.53
2022-09-10T00:33:52.518Z,100915.34
2022-09-10T00:36:21.915Z,100911.56
2022-09-10T00:38:50.712Z,100919.31
2022-09-10T00:41:19.497Z,100913.16
2022-09-10T00:43:57.959Z,100910.41
2022-09-10T00:46:47.864Z,100905.06
2022-09-10T00:49:34.778Z,100910.22
2022-09-10T00:52:02.607Z,100910.22
2022-09-10T00:54:34.605Z,100907.47
2022-09-10T00:57:06.245Z,100907.25
2022-09-10T00:59:33.493Z,100913.81
2022-09-10T01:02:01.166Z,100911.25
2022-09-10T01:04:32.375Z,100912.97
2022-09-10T01:07:00.491Z,100911.56
2022-09-10T01:09:28.755Z,100924.44
2022-09-10T01:12:39.888Z,100916.88
2022-09-10T01:15:24.657Z,100922.31
2022-09-10T01:18:11.531Z,100931.22
2022-09-10T01:21:10.984Z,100922.97
2022-09-10T01:23:52.896Z,100917.09
2022-09-10T01:26:28.366Z,100926.41
2022-09-10T01:29:01.312Z,100929.16
2022-09-10T01:31:37.041Z,100927.44
2022-09-10T01:34:16.447Z,100929.94
2022-09-10T01:36:48.167Z,100913.22
2022-09-10T01:39:20.225Z,100924.81
2022-09-10T01:41:49.247Z,100919.53
2022-09-10T01:44:43.940Z,100921.50
2022-09-10T01:47:45.483Z,100906.47
2022-09-10T01:50:43.437Z,100923.97
2022-09-10T01:53:14.030Z,100924.81
2022-09-10T01:55:59.995Z,100925.16
2022-09-10T01:58:26.529Z,100921.75
2022-09-10T02:01:05.646Z,100899.09
2022-09-10T02:03:36.173Z,100913.81
2022-09-10T02:06:04.799Z,100904.53
2022-09-10T02:08:39.375Z,100902.13
2022-09-10T02:11:11.979Z,100907.44
2022-09-10T02:13:43.755Z,100898.66
2022-09-10T02:16:15.331Z,100905.38
2022-09-10T02:18:42.728Z,100914.47
2022-09-10T02:21:12.234Z,100903.34
2022-09-10T02:23:50.628Z,100898.84
2022-09-10T02:26:19.854Z,100896.81
2022-09-10T02:28:49.591Z,100906.03
2022-09-10T02:31:18.675Z,100888.84
2022-09-10T02:33:45.439Z,100890.41
2022-09-10T02:36:11.991Z,100890.88
2022-09-10T02:38:38.624Z,100893.91
2022-09-10T02:41:05.227Z,100883.66
2022-09-10T02:43:31.758Z,100890.69
2022-09-10T02:46:02.418Z,100894.75
2022-09-10T02:48:31.202Z,100881.38
2022-09-10T02:50:58.089Z,100885.84
2022-09-10T02:53:26.065Z,100893.06
2022-09-10T02:55:52.601Z,100873.19
2022-09-10T02:58:26.369Z,100897.69
2022-09-10T03:00:53.454Z,100896.19
2022-09-10T03:03:19.974Z,100893.91
2022-09-10T03:05:48.909Z,100896.66
2022-09-10T03:08:15.447Z,100885.06
2022-09-10T03:10:41.962Z,100903.03
2022-09-10T03:13:08.492Z,100892.00
2022-09-10T03:15:38.259Z,100895.28
2022-09-10T03:18:05.711Z,100893.56
2022-09-10T03:20:32.342Z,100899.53
2022-09-10T03:23:01.514Z,100881.88
2022-09-10T03:25:28.034Z,100899.34
2022-09-10T03:27:54.687Z,100891.75
2022-09-10T03:30:23.767Z,100893.66
2022-09-10T03:32:53.685Z,100892.81
2022-09-10T03:35:20.269Z,100889.38
2022-09-10T03:37:49.198Z,100893.47
2022-09-10T03:40:18.221Z,100898.13
2022-09-10T03:42:45.985Z,100889.59
2022-09-10T03:45:13.713Z,100869.69
2022-09-10T03:47:40.678Z,100887.97
2022-09-10T03:50:07.684Z,100883.03
2022-09-10T03:52:34.178Z,100890.44
2022-09-10T03:55:00.744Z,100892.13
2022-09-10T03:57:30.442Z,100879.41
2022-09-10T03:59:56.987Z,100871.53
2022-09-10T04:02:23.553Z,100866.41
2022-09-10T04:04:54.854Z,100870.50
2022-09-10T04:07:23.630Z,100876.66
2022-09-10T04:09:50.084Z,100864.13
2022-09-10T04:12:17.009Z,100873.72
2022-09-10T04:14:45.497Z,100871.16
2022-09-10T04:17:12.841Z,100874.38
2022-09-10T04:19:40.229Z,100872.66
2022-09-10T04:22:11.550Z,100879.06
2022-09-10T04:24:40.781Z,100842.75
2022-09-10T04:27:07.376Z,100857.66
2022-09-10T04:29:33.874Z,100872.00
2022-09-10T04:32:03.435Z,100877.81
2022-09-10T04:34:29.935Z,100868.88
2022-09-10T04:36:56.419Z,100880.00
2022-09-10T04:39:22.906Z,100873.19
2022-09-10T04:41:49.438Z,100874.38
2022-09-10T04:44:20.057Z,100873.19
2022-09-10T04:46:47.732Z,100879.91
2022-09-10T04:49:16.523Z,100847.88
2022-09-10T04:51:45.718Z,100872.19
2022-09-10T04:54:15.120Z,100876.78
2022-09-10T04:56:46.575Z,100873.84
2022-09-10T04:59:15.330Z,100880.38
2022-09-10T05:01:42.168Z,100871.94
2022-09-10T05:04:11.374Z,100880.00
2022-09-10T05:06:37.946Z,100878.97
2022-09-10T05:09:04.421Z,100881.53
2022-09-10T05:11:33.466Z,100885.69
2022-09-10T05:14:02.190Z,100880.38
2022-09-10T05:16:28.834Z,100880.66
2022-09-10T05:18:58.741Z,100870.06
2022-09-10T05:21:25.252Z,100877.44
2022-09-10T05:23:51.834Z,100883.22
2022-09-10T05:26:18.326Z,100876.03
2022-09-10T05:28:44.840Z,100876.50
2022-09-10T05:31:13.965Z,100868.06
2022-09-10T05:33:40.809Z,100868.44
2022-09-10T05:36:11.657Z,100870.53
2022-09-10T05:38:40.096Z,100869.66
2022-09-10T05:41:10.849Z,100877.34
2022-09-10T05:43:37.578Z,100881.81
2022-09-10T05:46:04.930Z,100876.13
2022-09-10T05:48:31.629Z,100879.84
2022-09-10T05:51:04.241Z,100879.47
2022-09-10T05:53:34.158Z,100871.19
2022-09-10T05:56:11.120Z,100875.97
2022-09-10T05:58:40.413Z,100880.06
2022-09-10T06:01:09.328Z,100876.25
2022-09-10T06:03:36.955Z,100881.00
2022-09-10T06:06:07.006Z,100883.38
2022-09-10T06:08:37.920Z,100883.28
2022-09-10T06:11:08.423Z,100877.03
2022-09-10T06:13:35.765Z,100890.72
2022-09-10T06:16:03.064Z,100893.75
2022-09-10T06:18:30.369Z,100891.19
2022-09-10T06:21:13.717Z,100893.94
2022-09-10T06:23:40.293Z,100900.72
2022-09-10T06:26:10.299Z,100887.13
2022-09-10T06:28:37.660Z,100896.41
2022-09-10T06:31:08.459Z,100893.66
2022-09-10T06:33:37.541Z,100883.03
2022-09-10T06:36:04.275Z,100900.03
2022-09-10T06:38:36.653Z,100892.81
2022-09-10T06:41:08.226Z,100897.44
2022-09-10T06:43:37.960Z,100898.34
2022-09-10T06:46:31.984Z,100899.38
2022-09-10T06:49:04.278Z,100905.72
2022-09-10T06:51:31.709Z,100905.06
2022-09-10T06:54:01.469Z,100909.34
2022-09-10T06:57:53.505Z,100903.84
2022-09-10T06:59:25.140Z,100900.41
2022-09-10T07:01:51.818Z,100892.44
2022-09-10T07:04:22.046Z,100900.00
2022-09-10T07:06:48.897Z,100905.63
2022-09-10T07:09:17.978Z,100902.75
2022-09-10T07:11:46.710Z,100908.66
2022-09-10T07:14:13.927Z,100907.13
2022-09-10T07:16:44.343Z,100908.38
2022-09-10T07:19:13.433Z,100889.59
2022-09-10T07:21:39.967Z,100917.41
2022-09-10T07:24:06.830Z,100915.88
2022-09-10T07:26:33.332Z,100918.63
2022-09-10T07:29:00.283Z,100916.28
2022-09-10T07:31:30.353Z,100924.81
2022-09-10T07:33:58.252Z,100927.09
2022-09-10T07:36:25.638Z,100927.00
2022-09-10T07:39:03.490Z,100917.41
2022-09-10T07:41:33.127Z,100932.28
2022-09-10T07:43:59.722Z,100935.75
2022-09-10T07:46:31.011Z,100937.13
2022-09-10T07:49:01.705Z,100935.91
2022-09-10T07:51:33.102Z,100934.81
2022-09-10T07:54:00.195Z,100939.38
2022-09-10T07:56:27.224Z,100943.03
2022-09-10T07:58:57.605Z,100936.00
2022-09-10T08:01:24.242Z,100941.97
2022-09-10T08:03:50.950Z,100949.28
2022-09-10T08:06:17.965Z,100955.41
2022-09-10T08:08:46.009Z,100964.13
2022-09-10T08:11:21.369Z,100955.31
2022-09-10T08:14:04.492Z,100955.94
2022-09-10T08:16:41.239Z,100965.78
2022-09-10T08:19:15.378Z,100964.53
2022-09-10T08:21:42.020Z,100975.38
2022-09-10T08:24:13.266Z,100968.63
2022-09-10T08:26:43.736Z,100977.56
2022-09-10T08:29:13.291Z,100972.19
2022-09-10T08:31:41.242Z,100975.88
2022-09-10T08:34:13.862Z,100979.19
2022-09-10T08:36:40.582Z,100982.13
2022-09-10T08:39:08.536Z,100991.84
2022-09-10T08:41:41.285Z,100994.31
2022-09-10T08:44:37.338Z,100999.13
2022-09-10T08:47:22.425Z,100996.69
2022-09-10T08:49:53.618Z,100995.53
2022-09-10T08:52:31.915Z,101008.50
2022-09-10T08:55:28.725Z,101007.56
2022-09-10T08:58:24.404Z,101010.53
2022-09-10T09:01:05.473Z,101020.19
2022-09-10T09:03:45.650Z,101012.06
2022-09-10T09:06:46.527Z,101016.13
2022-09-10T09:09:17.800Z,101022.75
2022-09-10T09:11:47.460Z,101025.41
2022-09-10T09:14:19.411Z,101023.06
2022-09-10T09:17:07.626Z,101022.66
2022-09-10T09:19:58.263Z,101020.50
2022-09-10T09:22:44.081Z,101019.16
2022-09-10T09:25:41.024Z,101021.53
2022-09-10T09:28:19.241Z,101013.91
2022-09-10T09:30:50.813Z,101003.47
2022-09-10T09:33:23.301Z,101014.13
2022-09-10T09:35:57.218Z,101017.72
2022-09-10T09:38:50.107Z,101017.06
2022-09-10T09:41:33.460Z,101012.38
2022-09-10T09:44:16.807Z,101010.47
2022-09-10T09:46:45.513Z,101012.78
2022-09-10T09:49:19.246Z,101019.84
2022-09-10T09:51:55.151Z,101026.53
2022-09-10T09:57:22.224Z,101021.59
2022-09-10T09:59:56.816Z,101019.44
2022-09-10T10:02:28.330Z,101004.31
2022-09-10T10:05:07.961Z,101006.44
2022-09-10T10:07:37.907Z,101013.44
2022-09-10T10:10:19.958Z,101019.00
2022-09-10T10:12:51.265Z,101025.16
2022-09-10T10:15:43.415Z,101033.28
2022-09-10T10:18:23.295Z,101027.19
2022-09-10T10:21:11.648Z,101027.72
2022-09-10T10:23:40.273Z,101022.25
2022-09-10T10:26:22.367Z,101023.78
2022-09-10T10:29:01.481Z,101038.22
2022-09-10T10:31:40.562Z,101054.34
2022-09-10T10:34:10.132Z,101055.13
2022-09-10T10:36:43.508Z,101071.81
2022-09-10T10:39:36.511Z,101067.44
2022-09-10T10:42:13.636Z,101065.59
2022-09-10T10:44:48.013Z,101062.16
2022-09-10T10:47:17.374Z,101067.63
2022-09-10T10:49:46.738Z,101074.44
2022-09-10T10:52:41.838Z,101076.53
2022-09-10T10:55:25.948Z,101085.50
2022-09-10T10:58:17.661Z,101079.56
2022-09-10T11:00:55.816Z,101087.59
2022-09-10T11:03:31.937Z,101098.25
2022-09-10T11:06:08.269Z,101091.19
2022-09-10T11:08:39.618Z,101099.09
2022-09-10T11:11:20.856Z,101102.94
2022-09-10T11:13:59.558Z,101092.13
2022-09-10T11:16:58.498Z,101097.50
2022-09-10T11:20:28.979Z,101098.03
2022-09-10T11:23:11.098Z,101076.34
2022-09-10T11:25:52.203Z,101104.56
2022-09-10T11:28:26.699Z,101103.00
2022-09-10T11:31:09.987Z,101093.94
2022-09-10T11:33:57.286Z,101096.63
2022-09-10T11:36:56.650Z,101092.44
2022-09-10T11:39:45.744Z,101088.41
2022-09-10T11:42:31.497Z,101090.09
2022-09-10T11:45:11.874Z,101093.06
2022-09-10T11:47:53.574Z,101096.94
2022-09-10T11:50:41.326Z,101076.06
2022-09-10T11:53:18.169Z,101086.06
2022-09-10T11:56:14.981Z,101086.97
2022-09-10T11:59:02.101Z,101090.44
2022-09-10T12:01:50.109Z,101093.94
2022-09-10T12:04:40.102Z,101096.03
2022-09-10T12:09:15.308Z,101108.03
2022-09-10T12:10:36.584Z,101112.31
2022-09-10T12:13:16.081Z,101109.31
2022-09-10T12:16:30.517Z,101111.00
2022-09-10T12:19:00.631Z,101108.44
2022-09-10T12:21:53.575Z,101116.34
2022-09-10T12:24:36.319Z,101121.91
2022-09-10T12:27:11.566Z,101115.91
2022-09-10T12:29:44.175Z,101119.09
2022-09-10T12:32:17.024Z,101115.59
2022-09-10T12:34:49.690Z,101122.13
2022-09-10T12:37:31.979Z,101122.31
2022-09-10T12:40:29.739Z,101122.75
2022-09-10T12:43:40.985Z,101131.38
2022-09-10T12:46:13.585Z,101133.97
2022-09-10T12:48:58.425Z,101136.72
2022-09-10T12:51:52.617Z,101134.28
2022-09-10T12:54:49.979Z,101132.16
2022-09-10T12:57:26.136Z,101132.94
2022-09-10T13:00:26.714Z,101133.81
2022-09-10T13:03:18.565Z,101135.75
2022-09-10T13:05:50.220Z,101134.22
2022-09-10T13:08:20.765Z,101137.38
2022-09-10T13:11:01.220Z,101139.00
2022-09-10T13:13:40.514Z,101138.47
2022-09-10T13:16:19.188Z,101141.34
2022-09-10T13:18:57.084Z,101165.75
2022-09-10T13:21:31.166Z,101172.03
2022-09-10T13:24:47.871Z,101172.47
2022-09-10T13:27:17.648Z,101176.09
2022-09-10T13:29:48.138Z,101173.94
2022-09-10T13:32:27.336Z,101186.13
2022-09-10T13:35:06.266Z,101184.84
2022-09-10T13:38:13.774Z,101185.72
2022-09-10T13:41:22.780Z,101184.47
2022-09-10T13:44:13.630Z,101189.78
2022-09-10T13:47:03.309Z,101187.00
2022-09-10T13:50:07.908Z,101192.13
2022-09-10T13:52:38.388Z,101191.06
2022-09-10T13:55:09.097Z,101180.16
2022-09-10T13:57:45.040Z,101193.78
2022-09-10T14:00:40.562Z,101185.00
2022-09-10T14:03:22.289Z,101188.59
2022-09-10T14:06:12.239Z,101191.09
2022-09-10T14:08:57.234Z,101192.44
2022-09-10T14:11:47.511Z,101193.34
2022-09-10T14:14:27.457Z,101204.47
2022-09-10T14:17:11.851Z,101207.72
2022-09-10T14:19:45.126Z,101215.59
2022-09-10T14:22:23.285Z,101216.03
2022-09-10T14:24:58.129Z,101222.44
2022-09-10T14:27:32.591Z,101223.28
2022-09-10T14:30:23.403Z,101220.03
2022-09-10T14:32:51.074Z,101222.34
2022-09-10T14:35:41.075Z,101218.03
2022-09-10T14:38:47.684Z,101226.31
2022-09-10T14:41:28.188Z,101231.72
2022-09-10T14:44:27.540Z,101238.34
2022-09-10T14:47:12.407Z,101244.59
2022-09-10T14:49:47.683Z,101239.50
2022-09-10T14:52:15.906Z,101243.13
2022-09-10T14:54:45.079Z,101224.59
2022-09-10T14:57:15.113Z,101245.09
2022-09-10T14:59:45.590Z,101241.22
2022-09-10T15:02:17.369Z,101232.91
2022-09-10T15:04:49.980Z,101238.22
2022-09-10T15:07:16.588Z,101251.00
2022-09-10T15:09:44.525Z,101242.69
2022-09-10T15:12:28.870Z,101244.81
2022-09-10T15:14:59.909Z,101259.94
2022-09-10T15:17:28.542Z,101261.66
2022-09-10T15:19:56.367Z,101260.78
2022-09-10T15:22:26.213Z,101271.66
2022-09-10T15:25:12.845Z,101265.28
2022-09-10T15:27:41.591Z,101264.88
2022-09-10T15:30:08.499Z,101280.53
2022-09-10T15:32:37.524Z,101278.38
2022-09-10T15:35:05.142Z,101288.00
2022-09-10T15:37:34.227Z,101291.63
2022-09-10T15:40:01.175Z,101302.72
2022-09-10T15:42:27.753Z,101307.84
2022-09-10T15:44:57.427Z,101303.81
2022-09-10T15:47:24.216Z,101295.91
2022-09-10T15:49:53.470Z,101289.72
2022-09-10T15:52:20.063Z,101308.31
2022-09-10T15:54:46.787Z,101305.06
2022-09-10T15:57:13.347Z,101298.69
2022-09-10T15:59:40.669Z,101300.63
2022-09-10T16:02:14.452Z,101305.97
2022-09-10T16:04:43.051Z,101304.88
2022-09-10T16:07:30.026Z,101305.06
2022-09-10T16:10:01.577Z,101307.84
2022-09-10T16:12:29.128Z,101313.41
2022-09-10T16:14:56.502Z,101314.06
2022-09-10T16:17:23.362Z,101307.44
2022-09-10T16:19:51.348Z,101325.38
2022-09-10T16:22:20.962Z,101322.19
2022-09-10T16:24:47.558Z,101322.81
2022-09-10T16:27:17.381Z,101314.72
2022-09-10T16:29:44.044Z,101318.56
2022-09-10T16:32:10.918Z,101317.25
2022-09-10T16:34:39.773Z,101327.72
2022-09-10T16:37:06.342Z,101324.97
2022-09-10T16:39:32.914Z,101335.22
2022-09-10T16:41:59.422Z,101338.84
2022-09-10T16:44:26.041Z,101335.84
2022-09-10T16:46:52.628Z,101330.50
2022-09-10T16:49:19.826Z,101339.47
2022-09-10T16:51:51.824Z,101343.09
2022-09-10T16:54:22.400Z,101353.16
2022-09-10T16:56:50.460Z,101349.69
2022-09-10T16:59:22.544Z,101357.59
2022-09-10T17:01:50.452Z,101362.47
2022-09-10T17:04:27.524Z,101351.72
2022-09-10T17:06:55.906Z,101367.09
2022-09-10T17:09:22.650Z,101374.09
2022-09-10T17:11:49.285Z,101378.59
2022-09-10T17:14:18.138Z,101380.69
2022-09-10T17:16:48.752Z,101377.00
2022-09-10T17:19:23.581Z,101372.91
2022-09-10T17:21:52.932Z,101391.44
2022-09-10T17:24:24.139Z,101399.72
2022-09-10T17:26:51.888Z,101399.69
2022-09-10T17:29:23.075Z,101389.97
2022-09-10T17:31:55.673Z,101394.44
2022-09-10T17:34:24.338Z,101405.22
2022-09-10T17:36:51.368Z,101409.69
2022-09-10T17:39:18.501Z,101403.84
2022-09-10T17:41:45.458Z,101396.34
2022-09-10T17:44:12.507Z,101408.22
2022-09-10T17:46:44.983Z,101414.53
2022-09-10T17:49:16.630Z,101412.94
2022-09-10T17:51:44.735Z,101409.09
2022-09-10T17:54:14.912Z,101417.97
2022-09-10T17:56:44.083Z,101426.22
2022-09-10T17:59:14.830Z,101429.19
2022-09-10T18:01:43.647Z,101423.75
2022-09-10T18:04:17.721Z,101438.81
2022-09-10T18:06:47.872Z,101441.97
2022-09-10T18:09:17.007Z,101423.06
2022-09-10T18:11:43.658Z,101447.19
2022-09-10T18:14:21.568Z,101451.88
2022-09-10T18:16:51.401Z,101457.13
2022-09-10T18:19:20.980Z,101461.31
2022-09-10T18:21:48.451Z,101460.59
2022-09-10T18:24:19.440Z,101453.16
2022-09-10T18:26:48.198Z,101467.84
2022-09-10T18:29:30.041Z,101466.91
2022-09-10T18:31:58.591Z,101468.13
2022-09-10T18:34:27.854Z,101474.16
2022-09-10T18:36:57.544Z,101483.88
2022-09-10T18:39:27.316Z,101489.13
2022-09-10T18:41:54.705Z,101485.00
2022-09-10T18:44:24.895Z,101489.22
2022-09-10T18:46:53.023Z,101489.59
2022-09-10T18:49:24.593Z,101494.84
2022-09-10T18:51:52.723Z,101505.59
2022-09-10T18:54:23.190Z,101508.06
2022-09-10T18:56:51.238Z,101505.03
2022-09-10T18:59:23.803Z,101505.41
2022-09-10T19:01:52.885Z,101506.31
2022-09-10T19:04:23.821Z,101521.75
2022-09-10T19:06:50.465Z,101522.31
2022-09-10T19:09:24.029Z,101531.16
2022-09-10T19:11:55.917Z,101542.56
2022-09-10T19:14:26.356Z,101539.81
2022-09-10T19:16:55.150Z,101543.72
2022-09-10T19:19:24.299Z,101543.91
2022-09-10T19:21:54.251Z,101545.13
2022-09-10T19:24:37.805Z,101543.78
2022-09-10T19:27:10.444Z,101553.47
2022-09-10T19:29:37.147Z,101535.94
2022-09-10T19:32:03.686Z,101561.28
2022-09-10T19:34:31.132Z,101565.25
2022-09-10T19:36:57.608Z,101573.72
2022-09-10T19:39:24.175Z,101572.19
2022-09-10T19:41:50.783Z,101576.66
2022-09-10T19:44:18.227Z,101564.81
2022-09-10T19:46:45.352Z,101573.97
2022-09-10T19:49:12.644Z,101591.41
2022-09-10T19:51:40.635Z,101586.72
2022-09-10T19:54:07.831Z,101594.53
2022-09-10T19:56:37.819Z,101588.34
2022-09-10T19:59:08.711Z,101603.91
2022-09-10T20:01:41.375Z,101602.69
2022-09-10T20:04:10.304Z,101600.69
2022-09-10T20:06:40.117Z,101605.19
2022-09-10T20:09:08.098Z,101612.44
2022-09-10T20:11:35.559Z,101612.97
2022-09-10T20:14:13.933Z,101624.19
2022-09-10T20:16:43.284Z,101619.84
2022-09-10T20:19:13.115Z,101621.09
2022-09-10T20:21:42.419Z,101618.00
2022-09-10T20:24:10.148Z,101627.69
2022-09-10T20:26:38.909Z,101623.56
2022-09-10T20:29:08.027Z,101624.59
2022-09-10T20:31:37.340Z,101632.88
2022-09-10T20:34:08.688Z,101615.13
2022-09-10T20:36:37.963Z,101619.59
2022-09-10T20:39:06.473Z,101631.50
2022-09-10T20:41:33.389Z,101625.66
2022-09-10T20:44:01.477Z,101635.84
2022-09-10T20:46:30.434Z,101641.53
2022-09-10T20:49:03.228Z,101646.38
2022-09-10T20:51:33.253Z,101647.72
2022-09-10T20:54:00.581Z,101651.88
2022-09-10T20:56:27.609Z,101640.16
2022-09-10T20:58:54.290Z,101633.41
2022-09-10T21:01:25.821Z,101643.56
2022-09-10T21:03:54.412Z,101648.56
2022-09-10T21:06:25.666Z,101643.06
2022-09-10T21:08:52.617Z,101636.50
2022-09-10T21:11:21.034Z,101653.75
2022-09-10T21:13:53.226Z,101652.22
2022-09-10T21:16:23.123Z,101645.31
2022-09-10T21:18:54.868Z,101649.13
2022-09-10T21:21:26.323Z,101646.56
2022-09-10T21:23:55.622Z,101661.22
2022-09-10T21:26:25.311Z,101663.63
2022-09-10T21:28:59.914Z,101673.81
2022-09-10T21:31:30.233Z,101672.25
2022-09-10T21:34:02.453Z,101671.91
2022-09-10T21:36:31.110Z,101671.59
2022-09-10T21:39:01.841Z,101673.81
2022-09-10T21:41:34.889Z,101680.56
2022-09-10T21:44:06.088Z,101679.16
2022-09-10T21:46:33.344Z,101672.28
2022-09-10T21:49:00.677Z,101677.28
2022-09-10T21:51:29.394Z,101679.84
2022-09-10T21:53:57.065Z,101675.41
2022-09-10T21:56:25.956Z,101683.66
2022-09-10T21:58:53.672Z,101677.81
2022-09-10T22:01:22.875Z,101686.75
2022-09-10T22:03:50.209Z,101683.50
2022-09-10T22:06:24.659Z,101682.28
2022-09-10T22:08:54.541Z,101693.28
2022-09-10T22:11:24.232Z,101688.13
2022-09-10T22:13:55.803Z,101697.44
2022-09-10T22:16:23.036Z,101694.16
2022-09-10T22:18:50.747Z,101694.53
2022-09-10T22:21:18.061Z,101702.97
2022-09-10T22:23:45.178Z,101701.06
2022-09-10T22:26:16.717Z,101705.34
2022-09-10T22:28:43.674Z,101700.88
2022-09-10T22:31:19.334Z,101701.19
2022-09-10T22:33:53.072Z,101702.88
2022-09-10T22:36:26.649Z,101704.28
2022-09-10T22:39:01.209Z,101702.38
2022-09-10T22:41:29.201Z,101702.69
2022-09-10T22:43:57.023Z,101709.25
2022-09-10T22:46:24.074Z,101707.88
2022-09-10T22:48:52.937Z,101697.53
2022-09-10T22:51:23.810Z,101701.16
2022-09-10T22:53:52.531Z,101706.31
2022-09-10T22:56:22.111Z,101712.16
2022-09-10T22:58:51.630Z,101713.03
2022-09-10T23:01:20.950Z,101717.13
2022-09-10T23:03:50.261Z,101731.44
2022-09-10T23:06:24.733Z,101730.56
2022-09-10T23:08:53.603Z,101713.66
2022-09-10T23:11:21.657Z,101730.38
2022-09-10T23:13:54.154Z,101735.19
2022-09-10T23:16:26.169Z,101723.47
2022-09-10T23:18:55.265Z,101734.50
2022-09-10T23:21:24.219Z,101727.59
2022-09-10T23:24:12.817Z,101719.13
2022-09-10T23:26:39.676Z,101735.28
2022-09-10T23:29:06.663Z,101732.88
2022-09-10T23:31:36.100Z,101738.00
2022-09-10T23:34:09.710Z,101750.72
2022-09-10T23:36:39.210Z,101752.94
2022-09-10T23:39:13.018Z,101742.44
2022-09-10T23:41:41.103Z,101755.56
2022-09-10T23:44:09.003Z,101763.31
2022-09-10T23:46:36.710Z,101753.28
2022-09-10T23:49:04.751Z,101764.31
2022-09-10T23:51:31.985Z,101771.56
2022-09-10T23:53:59.529Z,101769.50
2022-09-10T23:56:28.352Z,101772.19
2022-09-10T23:58:55.790Z,101767.41
